Lingle, Wyoming
Current Conditions -  °F | °C
As of 6:53 AM on Friday 24 Oct 2014 (Local Time) from KTOR Reporting Station
Clear Clear  
Wind Chill: 14°   Ceiling: Unl
Heat Index: 14°   Visibility: 10mi
Dew Point:   Wind: 7mph
Humidity: 40%   Direction: 290°WNW
Pressure: 30.04"   Gusts: NA
Location:  42.14°N, 104.35°W
Report Text: KTOR 241253Z AUTO 29006KT 10SM CLR 14/01 A3004 RMK AO2 SLP143 T01390006
Loading
Personal Weather Stations






























Interactive Weather Map
Tropical Storm Tracking
New forecast layout! Learn more

10-Day Weather Forecast

Advertisements
Track Severe Weather on mobile